Time;durP1;ratioP1;P1;durP2;ratioP2;P2;SDS_P1;SDS_P2;PMS_P1;PMS_P2;Temp;Humidity;BMP_temperature;BMP_pressure;BME280_temperature;BME280_humidity;BME280_pressure;Samples;Min_cycle;Max_cycle;Signal;HPM_P1;HPM_P2
2024/01/19 00:01:12;;;;;;;26.65;17.35;;;;;;;8.36;100.00;62857.53;5105780;28;20231;-71
2024/01/19 00:03:39;;;;;;;25.25;17.73;;;;;;;8.39;100.00;62858.13;5103442;28;20370;-72
2024/01/19 00:06:07;;;;;;;20.17;15.57;;;;;;;8.15;100.00;62839.41;5103426;28;20224;-71
2024/01/19 00:08:35;;;;;;;20.90;14.70;;;;;;;8.23;100.00;62841.56;5107992;28;20263;-71
2024/01/19 00:11:02;;;;;;;24.33;16.38;;;;;;;8.24;100.00;62845.66;5105692;28;20232;-71
2024/01/19 00:13:28;;;;;;;21.55;15.13;;;;;;;8.31;100.00;62850.34;5102821;28;20207;-71
2024/01/19 00:15:55;;;;;;;24.60;16.08;;;;;;;8.23;100.00;62839.56;5106702;28;20224;-72
2024/01/19 00:18:25;;;;;;;27.17;17.65;;;;;;;8.33;100.00;62849.38;5102983;28;20501;-71
2024/01/19 00:20:52;;;;;;;30.35;19.70;;;;;;;8.39;100.00;62855.56;5109881;28;20276;-71
2024/01/19 00:23:19;;;;;;;32.00;20.13;;;;;;;8.34;100.00;62855.47;5102836;28;20267;-71
2024/01/19 00:25:47;;;;;;;27.42;18.23;;;;;;;8.38;100.00;62864.69;5105575;28;20220;-72
2024/01/19 00:28:14;;;;;;;22.50;16.92;;;;;;;8.42;100.00;62861.22;5105028;28;20223;-72
2024/01/19 00:30:41;;;;;;;20.48;14.88;;;;;;;8.37;100.00;62858.59;5104594;28;20228;-71
2024/01/19 00:33:07;;;;;;;17.80;13.13;;;;;;;8.26;100.00;62844.69;5103788;28;20200;-72
2024/01/19 00:35:35;;;;;;;17.98;12.30;;;;;;;8.28;100.00;62849.28;5107637;28;20218;-71
2024/01/19 00:38:02;;;;;;;19.17;13.48;;;;;;;8.32;100.00;62851.38;5106542;28;20203;-71
2024/01/19 00:40:28;;;;;;;17.05;11.13;;;;;;;8.26;100.00;62850.28;5103165;28;20219;-71
2024/01/19 00:42:57;;;;;;;14.23;10.02;;;;;;;8.34;100.00;62860.53;5093746;28;20212;-71
2024/01/19 00:45:23;;;;;;;11.60;9.48;;;;;;;8.32;100.00;62856.47;5107753;28;20439;-71
2024/01/19 00:47:50;;;;;;;10.93;9.20;;;;;;;8.33;100.00;62856.97;5103502;28;20286;-71
2024/01/19 00:50:17;;;;;;;16.20;9.18;;;;;;;8.32;100.00;62856.47;5103309;28;20273;-71
2024/01/19 00:52:44;;;;;;;9.18;8.25;;;;;;;8.37;100.00;62859.09;5103438;28;20253;-70
2024/01/19 00:55:11;;;;;;;13.13;7.88;;;;;;;8.18;100.00;62845.03;5104516;28;20216;-71
2024/01/19 00:57:38;;;;;;;8.88;7.30;;;;;;;8.22;100.00;62846.13;5095675;28;20205;-70
2024/01/19 01:00:09;;;;;;;9.00;7.32;;;;;;;8.07;100.00;62833.16;5101866;28;20386;-70
2024/01/19 01:02:35;;;;;;;9.85;7.60;;;;;;;8.10;100.00;62831.19;5101592;28;20195;-70
2024/01/19 01:05:02;;;;;;;8.45;6.82;;;;;;;8.08;100.00;62834.72;5103414;28;20284;-71
2024/01/19 01:07:29;;;;;;;7.03;6.18;;;;;;;8.14;100.00;62832.78;5103922;28;20408;-71
2024/01/19 01:09:56;;;;;;;5.95;5.35;;;;;;;8.13;100.00;62836.81;5107239;28;20242;-72
2024/01/19 01:12:23;;;;;;;7.00;5.00;;;;;;;8.14;100.00;62838.34;5102213;28;20242;-70
2024/01/19 01:14:49;;;;;;;4.80;4.28;;;;;;;8.06;100.00;62822.50;5103676;28;20224;-69
2024/01/19 01:17:18;;;;;;;5.45;4.95;;;;;;;8.13;100.00;62832.25;5097394;28;20212;-70
2024/01/19 01:19:45;;;;;;;5.38;4.88;;;;;;;8.19;100.00;62841.00;5104432;28;20254;-70
2024/01/19 01:22:13;;;;;;;6.50;4.80;;;;;;;8.28;100.00;62852.34;5103740;28;20239;-70
2024/01/19 01:24:39;;;;;;;4.18;3.78;;;;;;;8.05;100.00;62829.09;5105970;28;20261;-70
2024/01/19 01:27:06;;;;;;;6.63;4.47;;;;;;;8.10;100.00;62831.72;5104565;28;20253;-71
2024/01/19 01:29:33;;;;;;;5.57;4.32;;;;;;;8.04;100.00;62828.03;5104787;28;20242;-70
2024/01/19 01:32:00;;;;;;;5.32;4.40;;;;;;;8.09;100.00;62830.66;5103585;28;20269;-70
2024/01/19 01:34:28;;;;;;;4.47;4.07;;;;;;;8.02;100.00;62817.84;5103666;28;20567;-70
2024/01/19 01:36:55;;;;;;;4.80;4.40;;;;;;;8.12;100.00;62838.84;5102882;28;20206;-69
2024/01/19 01:39:22;;;;;;;4.70;4.40;;;;;;;8.11;100.00;62832.22;5101117;28;20269;-70
2024/01/19 01:41:49;;;;;;;4.57;4.18;;;;;;;8.14;100.00;62835.81;5100403;28;20200;-71
2024/01/19 01:44:16;;;;;;;6.88;4.10;;;;;;;8.12;100.00;62838.84;5102491;28;20430;-69
2024/01/19 01:46:43;;;;;;;8.00;3.92;;;;;;;8.12;100.00;62838.31;5102272;28;20444;-70
2024/01/19 01:49:10;;;;;;;7.20;4.30;;;;;;;8.11;100.00;62829.69;5104125;28;20267;-70
2024/01/19 01:51:38;;;;;;;4.30;4.00;;;;;;;8.14;100.00;62832.78;5102037;28;20266;-70
2024/01/19 01:54:05;;;;;;;5.32;4.68;;;;;;;8.15;100.00;62836.88;5108511;28;20212;-69
2024/01/19 01:56:32;;;;;;;6.22;4.28;;;;;;;8.18;100.00;62834.88;5102699;28;20498;-70
2024/01/19 01:58:59;;;;;;;5.38;4.18;;;;;;;8.15;100.00;62836.34;5103185;28;20208;-70
2024/01/19 02:01:26;;;;;;;4.53;4.15;;;;;;;8.16;100.00;62837.88;5094913;28;20242;-70
2024/01/19 02:03:53;;;;;;;4.78;3.72;;;;;;;8.16;100.00;62834.84;5099805;28;20203;-70
2024/01/19 02:06:19;;;;;;;3.65;3.45;;;;;;;8.09;100.00;62827.63;5107625;28;20210;-70
2024/01/19 02:08:48;;;;;;;4.78;3.72;;;;;;;8.13;100.00;62834.81;5103516;28;20257;-70
2024/01/19 02:11:15;;;;;;;4.30;3.22;;;;;;;8.18;100.00;62841.97;5102289;28;20257;-70
2024/01/19 02:13:41;;;;;;;3.25;2.92;;;;;;;8.03;100.00;62819.41;5098959;28;20489;-69
2024/01/19 02:16:08;;;;;;;3.33;3.13;;;;;;;8.03;100.00;62823.94;5100453;28;20257;-70
2024/01/19 02:18:35;;;;;;;3.67;3.15;;;;;;;8.04;100.00;62825.00;5100091;28;20252;-70
2024/01/19 02:21:02;;;;;;;3.38;3.17;;;;;;;7.98;100.00;62816.25;5101070;28;20239;-69
2024/01/19 02:23:30;;;;;;;3.28;3.00;;;;;;;7.98;100.00;62818.78;5101549;28;20271;-69
2024/01/19 02:25:58;;;;;;;4.90;3.22;;;;;;;7.90;100.00;62813.56;5103649;28;20224;-71
2024/01/19 02:28:25;;;;;;;3.05;2.75;;;;;;;7.86;100.00;62803.88;5096595;28;20227;-70
2024/01/19 02:30:52;;;;;;;3.40;3.20;;;;;;;7.79;100.00;62802.22;5098324;28;20220;-71
2024/01/19 02:33:19;;;;;;;4.30;3.17;;;;;;;7.71;100.00;62785.84;5103719;28;20241;-70
2024/01/19 02:35:46;;;;;;;3.03;2.83;;;;;;;7.70;100.00;62790.41;5103238;28;20417;-70
2024/01/19 02:38:12;;;;;;;3.40;3.10;;;;;;;7.64;100.00;62786.75;5096496;28;20207;-70
2024/01/19 02:40:39;;;;;;;3.42;3.17;;;;;;;7.61;100.00;62778.56;5098520;28;20224;-70
2024/01/19 02:43:07;;;;;;;3.15;2.95;;;;;;;7.53;100.00;62775.38;5095527;28;20222;-71
2024/01/19 02:45:34;;;;;;;2.88;2.75;;;;;;;7.51;100.00;62770.25;5103512;28;20223;-70
2024/01/19 02:48:02;;;;;;;3.95;2.47;;;;;;;7.58;100.00;62775.47;5093892;28;20196;-70
2024/01/19 02:50:29;;;;;;;2.85;2.65;;;;;;;7.48;100.00;62764.66;5103109;28;20232;-71
2024/01/19 02:52:56;;;;;;;3.13;2.92;;;;;;;7.36;100.00;62755.31;5106377;28;20444;-70
2024/01/19 02:55:23;;;;;;;2.55;2.38;;;;;;;7.36;100.00;62757.84;5099852;28;20228;-70
2024/01/19 02:57:49;;;;;;;2.92;2.53;;;;;;;7.41;100.00;62759.94;5095332;28;20261;-70
2024/01/19 03:00:18;;;;;;;2.47;2.22;;;;;;;7.39;100.00;62757.88;5101268;28;20595;-70
2024/01/19 03:02:44;;;;;;;2.15;1.90;;;;;;;7.37;100.00;62761.41;5103874;28;20204;-70
2024/01/19 03:05:11;;;;;;;3.17;2.15;;;;;;;7.37;100.00;62756.34;5099519;28;20216;-70
2024/01/19 03:07:38;;;;;;;2.00;1.90;;;;;;;7.35;100.00;62751.75;5101336;28;20263;-70
2024/01/19 03:10:07;;;;;;;3.17;1.98;;;;;;;7.37;100.00;62758.38;5103956;28;20294;-71
2024/01/19 03:12:34;;;;;;;2.17;1.98;;;;;;;7.38;100.00;62759.91;5104475;28;20232;-70
2024/01/19 03:15:00;;;;;;;2.47;2.28;;;;;;;7.43;100.00;62762.53;5108824;28;20287;-70
2024/01/19 03:17:29;;;;;;;1.90;1.75;;;;;;;7.42;100.00;62761.50;5107203;28;20200;-71
2024/01/19 03:19:56;;;;;;;3.00;2.30;;;;;;;7.41;100.00;62762.47;5106136;28;20232;-69
2024/01/19 03:22:23;;;;;;;5.85;3.15;;;;;;;7.27;100.00;62740.44;5105692;28;20203;-70
2024/01/19 03:24:49;;;;;;;4.68;2.78;;;;;;;7.18;100.00;62741.28;5104558;28;20216;-70
2024/01/19 03:27:16;;;;;;;2.50;2.30;;;;;;;7.14;100.00;62737.16;5109734;28;20196;-70
2024/01/19 03:29:44;;;;;;;8.20;3.17;;;;;;;7.07;100.00;62725.91;5104088;28;20217;-69
2024/01/19 03:32:11;;;;;;;2.10;2.00;;;;;;;7.07;100.00;62722.88;5104395;28;20231;-69
2024/01/19 03:34:39;;;;;;;2.53;2.00;;;;;;;7.03;100.00;62724.31;5104340;28;20212;-70
2024/01/19 03:37:05;;;;;;;2.50;2.03;;;;;;;7.04;100.00;62722.28;5107277;28;20204;-70
2024/01/19 03:39:33;;;;;;;3.63;2.22;;;;;;;6.88;100.00;62701.25;5106536;28;20281;-70
2024/01/19 03:41:59;;;;;;;2.30;1.90;;;;;;;6.88;100.00;62708.31;5092060;28;20267;-70
2024/01/19 03:44:26;;;;;;;3.22;2.03;;;;;;;6.78;100.00;62695.47;5104559;28;20224;-71
2024/01/19 03:46:53;;;;;;;4.75;1.67;;;;;;;6.72;100.00;62692.34;5106423;28;20223;-71
2024/01/19 03:49:20;;;;;;;1.40;1.30;;;;;;;6.75;100.00;62697.94;5105243;28;20216;-70
2024/01/19 03:52:04;;;;;;;2.45;1.70;;;;;;;6.68;100.00;62688.19;5096495;28;20204;-69
2024/01/19 03:54:32;;;;;;;1.67;1.58;;;;;;;6.67;100.00;62686.66;5092957;28;20242;-71
2024/01/19 03:56:59;;;;;;;2.03;1.88;;;;;;;6.67;100.00;62684.66;5112423;28;20241;-70
2024/01/19 03:59:26;;;;;;;1.77;1.67;;;;;;;6.69;100.00;62683.66;5108713;28;20207;-70
2024/01/19 04:01:54;;;;;;;1.98;1.88;;;;;;;6.73;100.00;62695.88;5105967;28;20267;-70
2024/01/19 04:04:21;;;;;;;4.15;1.80;;;;;;;6.82;100.00;62700.13;5102512;28;20261;-71
2024/01/19 04:06:48;;;;;;;1.20;1.20;;;;;;;6.80;100.00;62698.03;5102391;28;20197;-71
2024/01/19 04:09:16;;;;;;;3.83;2.13;;;;;;;6.77;100.00;62697.50;5099569;28;20524;-71
2024/01/19 04:11:43;;;;;;;3.00;1.40;;;;;;;6.80;100.00;62689.94;5101575;28;20208;-71
2024/01/19 04:14:10;;;;;;;3.00;1.50;;;;;;;6.83;100.00;62700.63;5104785;28;20196;-70
2024/01/19 04:16:37;;;;;;;2.80;1.77;;;;;;;6.85;100.00;62700.66;5105055;28;20493;-70
2024/01/19 04:19:04;;;;;;;1.75;1.65;;;;;;;6.90;100.00;62712.91;5098289;28;20216;-72
2024/01/19 04:21:31;;;;;;;2.88;1.40;;;;;;;6.86;100.00;62703.72;5092828;28;20446;-69
2024/01/19 04:23:58;;;;;;;2.40;1.67;;;;;;;6.81;100.00;62698.56;5109020;28;20226;-71
2024/01/19 04:26:27;;;;;;;1.83;1.73;;;;;;;6.80;100.00;62692.47;5105160;28;20241;-71
2024/01/19 04:28:54;;;;;;;1.67;1.58;;;;;;;6.99;100.00;62717.66;5103913;28;20207;-70
2024/01/19 04:31:21;;;;;;;3.65;2.08;;;;;;;7.01;100.00;62721.72;5105291;28;20453;-71
2024/01/19 04:33:48;;;;;;;2.05;1.83;;;;;;;7.02;100.00;62720.25;5102664;28;20261;-70
2024/01/19 04:36:17;;;;;;;2.30;2.20;;;;;;;7.10;100.00;62730.50;5103606;28;20216;-71
2024/01/19 04:38:44;;;;;;;2.40;2.20;;;;;;;7.17;100.00;62737.72;5106459;28;20370;-72
2024/01/19 04:41:11;;;;;;;4.68;2.78;;;;;;;7.20;100.00;62740.81;5103677;28;20226;-69
2024/01/19 04:43:40;;;;;;;3.30;2.35;;;;;;;7.20;100.00;62740.81;5100049;28;20302;-71
2024/01/19 04:46:06;;;;;;;2.38;2.22;;;;;;;7.25;100.00;62743.44;5104991;28;20231;-72
2024/01/19 04:48:33;;;;;;;2.33;2.13;;;;;;;7.28;100.00;62751.59;5104869;28;20216;-71
2024/01/19 04:51:00;;;;;;;2.60;2.40;;;;;;;7.33;100.00;62749.16;5106787;28;20220;-70
2024/01/19 04:53:27;;;;;;;3.00;2.22;;;;;;;7.36;100.00;62754.78;5104628;28;20231;-69
2024/01/19 04:55:54;;;;;;;2.67;2.47;;;;;;;7.39;100.00;62758.41;5102483;28;20467;-70
2024/01/19 04:58:21;;;;;;;4.65;2.92;;;;;;;7.48;100.00;62765.16;5094539;28;20199;-71
2024/01/19 05:00:49;;;;;;;3.08;2.35;;;;;;;7.44;100.00;62768.63;5096350;28;20449;-70
2024/01/19 05:03:17;;;;;;;3.90;2.30;;;;;;;7.48;100.00;62767.19;5107586;28;20204;-70
2024/01/19 05:05:43;;;;;;;3.30;2.50;;;;;;;7.54;100.00;62775.91;5101825;28;20415;-71
2024/01/19 05:08:11;;;;;;;2.20;2.00;;;;;;;7.57;100.00;62773.94;5095618;28;20481;-71
2024/01/19 05:10:38;;;;;;;4.72;2.60;;;;;;;7.65;100.00;62784.72;5094183;28;20221;-70
2024/01/19 05:13:04;;;;;;;2.90;2.53;;;;;;;7.65;100.00;62784.72;5101816;28;20227;-71
2024/01/19 05:15:31;;;;;;;3.63;2.33;;;;;;;7.66;100.00;62788.81;5096786;28;20212;-70
2024/01/19 05:18:00;;;;;;;2.30;2.20;;;;;;;7.70;100.00;62787.34;5099146;28;20202;-68
2024/01/19 05:20:27;;;;;;;2.20;2.00;;;;;;;7.67;100.00;62784.78;5100206;28;20254;-70
2024/01/19 05:22:55;;;;;;;3.90;2.63;;;;;;;7.71;100.00;62796.00;5096337;28;20454;-70
2024/01/19 05:25:22;;;;;;;5.40;2.65;;;;;;;7.77;100.00;62797.09;5102254;28;20232;-71
2024/01/19 05:27:51;;;;;;;4.70;2.33;;;;;;;7.77;100.00;62799.63;5089937;28;20196;-71
2024/01/19 05:30:18;;;;;;;7.28;2.72;;;;;;;7.74;100.00;62797.06;5095402;28;20264;-70
2024/01/19 05:32:45;;;;;;;5.10;2.83;;;;;;;7.75;100.00;62793.03;5088277;28;20244;-70
2024/01/19 05:35:14;;;;;;;2.95;2.63;;;;;;;7.83;100.00;62803.31;5096938;28;20221;-71
2024/01/19 05:37:40;;;;;;;2.72;2.55;;;;;;;7.83;100.00;62805.84;5096882;28;20338;-70
2024/01/19 05:40:08;;;;;;;2.40;2.20;;;;;;;7.86;100.00;62806.94;5094066;28;20295;-70
2024/01/19 05:42:35;;;;;;;2.83;2.63;;;;;;;7.91;100.00;62809.03;5089870;28;20486;-72
2024/01/19 05:45:02;;;;;;;4.43;2.92;;;;;;;7.90;100.00;62810.53;5101495;28;20232;-71
2024/01/19 05:47:29;;;;;;;5.80;2.45;;;;;;;7.88;100.00;62811.53;5104424;28;20349;-70
2024/01/19 05:49:55;;;;;;;5.30;2.60;;;;;;;7.86;100.00;62809.47;5096017;28;20221;-71
2024/01/19 05:52:24;;;;;;;3.90;2.88;;;;;;;7.82;100.00;62805.31;5100065;28;20225;-70
2024/01/19 05:54:50;;;;;;;3.72;2.78;;;;;;;7.81;100.00;62803.78;5090664;28;20265;-69
2024/01/19 05:57:18;;;;;;;4.45;3.25;;;;;;;7.84;100.00;62804.34;5101412;28;20200;-70
2024/01/19 05:59:45;;;;;;;2.78;2.58;;;;;;;7.89;100.00;62812.56;5103963;28;20231;-70
2024/01/19 06:02:12;;;;;;;2.83;2.63;;;;;;;7.89;100.00;62807.47;5103592;28;20196;-70
2024/01/19 06:04:41;;;;;;;3.88;3.40;;;;;;;7.94;100.00;62810.09;5100658;28;20223;-70
2024/01/19 06:07:07;;;;;;;4.35;3.95;;;;;;;7.89;100.00;62809.50;5104100;28;20392;-72
2024/01/19 06:09:36;;;;;;;3.47;3.15;;;;;;;7.84;100.00;62807.38;5105173;28;20238;-70
2024/01/19 06:12:03;;;;;;;5.07;4.57;;;;;;;7.87;100.00;62804.88;5101289;28;20312;-70
2024/01/19 06:14:30;;;;;;;4.07;3.67;;;;;;;7.83;100.00;62803.84;5094161;28;20287;-70
2024/01/19 06:16:57;;;;;;;4.03;3.28;;;;;;;7.81;100.00;62798.72;5103795;28;20210;-70
2024/01/19 06:19:23;;;;;;;5.80;3.90;;;;;;;7.79;100.00;62799.69;5101939;28;20215;-70
2024/01/19 06:21:50;;;;;;;4.90;3.50;;;;;;;7.81;100.00;62801.25;5092842;28;20225;-69
2024/01/19 06:24:17;;;;;;;5.97;4.60;;;;;;;7.70;100.00;62787.34;5104442;28;20223;-70
2024/01/19 06:26:46;;;;;;;5.90;4.05;;;;;;;7.67;100.00;62787.31;5102641;28;20200;-70
2024/01/19 06:29:13;;;;;;;3.72;3.35;;;;;;;7.74;100.00;62799.59;5103526;28;20203;-71
2024/01/19 06:31:46;;;;;;;4.55;3.67;;;;;;;7.41;100.00;62762.47;5101404;28;20206;-70
2024/01/19 06:34:13;;;;;;;10.05;4.75;;;;;;;7.37;100.00;62750.78;5102916;28;20238;-69
2024/01/19 06:36:40;;;;;;;4.57;4.22;;;;;;;7.32;100.00;62753.19;5101323;28;20202;-70
2024/01/19 06:39:07;;;;;;;5.03;4.07;;;;;;;7.28;100.00;62746.53;5101210;28;20220;-70
2024/01/19 06:41:34;;;;;;;5.63;3.92;;;;;;;7.28;100.00;62749.06;5104817;28;20247;-70
2024/01/19 06:44:02;;;;;;;3.75;3.45;;;;;;;7.29;100.00;62745.03;5105341;28;20214;-70
2024/01/19 06:46:29;;;;;;;5.00;3.47;;;;;;;7.31;100.00;62750.16;5098661;28;20227;-71
2024/01/19 06:48:56;;;;;;;4.70;4.25;;;;;;;7.35;100.00;62751.22;5102760;28;20458;-70
2024/01/19 06:51:24;;;;;;;6.88;4.22;;;;;;;7.39;100.00;62758.41;5106426;28;20212;-70
2024/01/19 06:53:51;;;;;;;5.47;3.70;;;;;;;7.56;100.00;62777.97;5105342;28;20255;-70
2024/01/19 06:56:18;;;;;;;3.95;3.53;;;;;;;7.76;100.00;62796.09;5107925;28;20425;-69
2024/01/19 06:58:44;;;;;;;5.30;4.13;;;;;;;7.92;100.00;62813.09;5110086;28;20223;-71
2024/01/19 07:01:13;;;;;;;4.43;3.72;;;;;;;8.05;100.00;62829.09;5099524;28;20236;-71
2024/01/19 07:03:40;;;;;;;6.57;3.92;;;;;;;8.14;100.00;62833.28;5096929;28;20254;-70
2024/01/19 07:06:07;;;;;;;4.93;3.33;;;;;;;8.17;100.00;62836.41;5093703;28;20260;-69
2024/01/19 07:08:33;;;;;;;5.68;3.83;;;;;;;8.30;100.00;62853.88;5096896;28;20215;-69
2024/01/19 07:11:00;;;;;;;5.13;3.55;;;;;;;8.40;100.00;62862.19;5096640;28;20521;-71
2024/01/19 07:13:27;;;;;;;3.63;3.15;;;;;;;8.50;100.00;62869.47;5100056;28;20230;-70
2024/01/19 07:15:54;;;;;;;4.75;3.80;;;;;;;8.55;100.00;62875.16;5102597;28;20386;-70
2024/01/19 07:18:22;;;;;;;2.53;2.40;;;;;;;8.59;100.00;62886.91;5101368;28;20203;-70
2024/01/19 07:20:49;;;;;;;3.15;2.95;;;;;;;8.68;100.00;62890.59;5096973;28;20220;-69
2024/01/19 07:23:16;;;;;;;4.30;3.00;;;;;;;8.77;100.00;62900.41;5101472;28;20200;-70
2024/01/19 07:25:43;;;;;;;3.60;3.00;;;;;;;8.80;100.00;62900.47;5100874;28;20216;-71
2024/01/19 07:28:10;;;;;;;2.92;2.25;;;;;;;8.94;100.00;62917.97;5094973;28;20199;-71
2024/01/19 07:30:39;;;;;;;4.65;2.78;;;;;;;8.95;100.00;62921.56;5098852;28;20246;-70
2024/01/19 07:33:06;;;;;;;6.53;4.20;;;;;;;8.94;100.00;62917.47;5094392;28;20273;-70
2024/01/19 07:35:34;;;;;;;7.55;3.95;;;;;;;9.05;100.00;62926.81;5104529;28;20261;-70
2024/01/19 07:38:01;;;;;;;5.30;4.13;;;;;;;9.11;100.00;62935.53;5090105;28;20201;-69
2024/01/19 07:40:28;;;;;;;6.63;3.88;;;;;;;9.15;100.00;62939.16;5104000;28;20223;-70
2024/01/19 07:42:55;;;;;;;4.70;4.25;;;;;;;9.05;100.00;62931.38;5103706;28;20207;-69
2024/01/19 07:45:21;;;;;;;7.35;4.40;;;;;;;9.14;100.00;62940.69;5095043;28;20276;-70
2024/01/19 07:47:48;;;;;;;7.40;3.63;;;;;;;9.11;100.00;62940.13;5095992;28;20204;-72
2024/01/19 07:50:16;;;;;;;6.68;4.40;;;;;;;9.11;100.00;62938.09;5098302;28;20224;-70
2024/01/19 07:52:45;;;;;;;4.57;2.60;;;;;;;9.08;100.00;62935.00;5107055;28;20269;-72
2024/01/19 07:55:11;;;;;;;3.70;3.22;;;;;;;9.04;100.00;62930.84;5107299;28;20232;-70
2024/01/19 07:57:38;;;;;;;4.32;3.55;;;;;;;8.97;100.00;62918.53;5096154;28;20469;-71
2024/01/19 08:00:08;;;;;;;3.58;2.80;;;;;;;8.97;100.00;62923.63;5105437;28;20257;-71
2024/01/19 08:02:35;;;;;;;2.58;2.40;;;;;;;9.07;100.00;62931.44;5107106;28;20204;-72
2024/01/19 08:05:02;;;;;;;5.47;2.80;;;;;;;9.25;100.00;62947.47;5104714;28;20227;-71
2024/01/19 08:07:29;;;;;;;4.50;2.30;;;;;;;9.30;100.00;62954.69;5103213;28;20207;-71
2024/01/19 08:09:57;;;;;;;6.28;2.20;;;;;;;9.54;100.00;62978.97;5111110;28;20235;-70
2024/01/19 08:12:24;;;;;;;3.15;2.90;;;;;;;9.82;100.00;63010.97;5105599;28;20267;-70
2024/01/19 08:14:52;;;;;;;2.80;2.53;;;;;;;9.93;100.00;63019.31;5105003;28;20715;-71
2024/01/19 08:17:18;;;;;;;3.20;2.20;;;;;;;9.90;100.00;63014.19;5105760;28;20196;-71
2024/01/19 08:19:45;;;;;;;3.90;2.47;;;;;;;10.12;100.00;63039.50;5106624;28;20220;-70
2024/01/19 08:22:14;;;;;;;3.50;2.38;;;;;;;10.19;100.00;63048.78;5099644;28;20237;-70
2024/01/19 08:24:41;;;;;;;2.38;2.15;;;;;;;10.26;100.00;63056.00;5104463;28;20260;-71
2024/01/19 08:27:09;;;;;;;4.05;2.47;;;;;;;10.34;100.00;63064.28;5103872;28;20192;-70
2024/01/19 08:29:36;;;;;;;3.33;2.15;;;;;;;10.62;100.00;63088.19;5106310;28;20446;-71
2024/01/19 08:32:03;;;;;;;3.72;2.83;;;;;;;10.71;100.00;63102.59;5106158;28;20267;-70
2024/01/19 08:34:30;;;;;;;5.00;2.40;;;;;;;10.89;100.00;63116.13;5106031;28;20263;-70
2024/01/19 08:36:57;;;;;;;5.78;2.83;;;;;;;11.04;100.00;63136.22;5086751;28;20239;-70
2024/01/19 08:39:23;;;;;;;4.18;3.13;;;;;;;11.04;100.00;63131.66;5101857;28;20247;-70
2024/01/19 08:41:50;;;;;;;4.55;3.03;;;;;;;10.96;100.00;63123.38;5102214;28;20223;-73
2024/01/19 08:44:18;;;;;;;3.05;2.85;;;;;;;10.86;100.00;63115.03;5110590;28;20255;-70
2024/01/19 08:46:45;;;;;;;3.38;2.85;;;;;;;10.74;100.00;63105.16;5093264;28;20204;-70
2024/01/19 08:49:12;;;;;;;6.82;2.35;;;;;;;10.66;100.00;63097.41;5101063;28;20306;-71
2024/01/19 08:51:39;;;;;;;7.88;3.00;;;;;;;10.44;100.00;63075.16;5088880;28;20210;-71
2024/01/19 08:54:06;;;;;;;2.67;2.47;;;;;;;10.53;100.00;63083.44;5102067;28;20232;-71
2024/01/19 08:56:33;;;;;;;4.90;2.97;;;;;;;10.53;100.00;63078.34;5102376;28;20202;-70
2024/01/19 08:59:00;;;;;;;5.68;2.85;;;;;;;10.65;100.00;63095.88;5104999;28;20218;-71
2024/01/19 09:01:31;;;;;;;4.43;2.88;;;;;;;10.69;100.00;63100.50;5103469;28;20203;-71
2024/01/19 09:03:58;;;;;;;3.33;3.03;;;;;;;10.82;100.00;63116.50;5106093;28;20200;-69
2024/01/19 09:06:25;;;;;;;6.70;3.03;;;;;;;10.86;100.00;63118.09;5104997;28;20200;-70
2024/01/19 09:08:52;;;;;;;3.67;2.60;;;;;;;11.09;100.00;63136.84;5107969;28;20237;-70
2024/01/19 09:11:19;;;;;;;3.17;2.88;;;;;;;11.19;100.00;63151.75;5100612;28;20204;-70
2024/01/19 09:13:46;;;;;;;3.20;2.85;;;;;;;11.27;100.00;63160.56;5104613;28;20231;-70
2024/01/19 09:16:13;;;;;;;5.22;3.80;;;;;;;11.34;100.00;63164.75;5091646;28;20216;-70
2024/01/19 09:18:41;;;;;;;10.48;5.68;;;;;;;11.33;100.00;63166.78;5089815;28;20200;-72
2024/01/19 09:21:08;;;;;;;5.20;3.40;;;;;;;11.50;100.00;63183.88;5093437;28;20223;-71
2024/01/19 09:23:35;;;;;;;3.63;2.83;;;;;;;11.58;100.00;63190.13;5107548;28;20500;-70
2024/01/19 09:26:02;;;;;;;11.27;5.90;;;;;;;11.69;100.00;63200.50;5104541;28;20744;-71
2024/01/19 09:28:29;;;;;;;3.83;2.97;;;;;;;11.60;100.00;63194.22;5101636;28;20276;-70
2024/01/19 09:30:56;;;;;;;6.63;3.03;;;;;;;11.63;100.00;63194.78;5093437;28;20226;-69
2024/01/19 09:33:22;;;;;;;5.68;2.75;;;;;;;11.70;100.00;63199.00;5102928;28;20208;-71
2024/01/19 09:35:51;;;;;;;2.80;2.60;;;;;;;11.75;100.00;63209.28;5105374;28;20529;-71
2024/01/19 09:38:17;;;;;;;5.18;3.67;;;;;;;11.69;100.00;63200.50;5106039;28;20279;-71
2024/01/19 09:40:45;;;;;;;4.97;3.25;;;;;;;11.29;100.00;63159.56;5101868;28;20232;-71
2024/01/19 09:43:13;;;;;;;3.83;3.28;;;;;;;11.08;100.00;63140.38;5102368;28;20208;-70
2024/01/19 09:45:41;;;;;;;3.85;3.08;;;;;;;11.08;100.00;63137.84;5094585;28;20398;-70
2024/01/19 09:48:15;;;;;;;6.65;3.75;;;;;;;11.09;100.00;63136.84;5104875;28;20254;-70
2024/01/19 09:50:42;;;;;;;4.07;3.67;;;;;;;11.04;100.00;63134.22;5103173;28;20227;-71
2024/01/19 09:53:16;;;;;;;4.28;3.88;;;;;;;11.18;100.00;63148.19;5103375;28;20204;-71
2024/01/19 09:55:42;;;;;;;4.55;4.15;;;;;;;11.10;100.00;63145.50;5103310;28;20235;-70
2024/01/19 09:58:09;;;;;;;7.45;3.55;;;;;;;11.24;100.00;63156.94;5104862;28;20204;-71
2024/01/19 10:00:36;;;;;;;7.43;4.55;;;;;;;11.25;100.00;63155.44;5106438;28;20287;-70
2024/01/19 10:03:03;;;;;;;6.20;3.55;;;;;;;11.17;100.00;63150.22;5092566;28;20272;-71
2024/01/19 10:05:30;;;;;;;6.43;3.60;;;;;;;11.36;100.00;63171.91;5101274;28;20215;-69
2024/01/19 10:07:57;;;;;;;5.13;3.20;;;;;;;11.43;100.00;63179.69;5098599;28;20253;-70
2024/01/19 10:10:26;;;;;;;4.35;3.58;;;;;;;11.58;100.00;63194.69;5103579;28;20216;-71
2024/01/19 10:12:53;;;;;;;6.28;3.92;;;;;;;11.70;100.00;63204.59;5096821;28;20484;-70
2024/01/19 10:15:20;;;;;;;4.18;2.83;;;;;;;11.66;100.00;63199.94;5107851;28;20231;-71
2024/01/19 10:17:47;;;;;;;4.90;3.47;;;;;;;11.63;100.00;63195.31;5105737;28;20208;-71
2024/01/19 10:20:14;;;;;;;8.88;3.80;;;;;;;11.80;100.00;63209.34;5087884;28;20270;-71
2024/01/19 10:22:41;;;;;;;4.38;3.97;;;;;;;11.71;100.00;63205.66;5092373;28;20196;-70
2024/01/19 10:25:08;;;;;;;7.75;3.92;;;;;;;11.82;100.00;63214.47;5105719;28;20251;-71
2024/01/19 10:27:41;;;;;;;7.20;4.40;;;;;;;11.86;100.00;63223.72;5107660;28;20219;-71
2024/01/19 10:30:10;;;;;;;6.32;3.88;;;;;;;11.80;100.00;63217.53;5092346;28;20247;-71
2024/01/19 10:32:39;;;;;;;5.65;5.10;;;;;;;11.85;100.00;63217.09;5100170;28;20206;-73
2024/01/19 10:35:07;;;;;;;8.07;5.22;;;;;;;11.88;100.00;63220.72;5104267;28;20235;-70
2024/01/19 10:37:34;;;;;;;6.90;5.20;;;;;;;11.97;100.00;63234.63;5096339;28;20197;-70
2024/01/19 10:40:13;;;;;;;10.38;5.32;;;;;;;11.82;100.00;63216.53;5102227;28;20235;-70
2024/01/19 10:42:42;;;;;;;10.73;6.05;;;;;;;11.80;100.00;63214.47;5101456;28;20191;-70
2024/01/19 10:45:15;;;;;;;2.00;1.90;;;;;;;11.71;100.00;63202.56;5106347;28;20224;-71
2024/01/19 10:47:44;;;;;;;3.65;1.98;;;;;;;11.94;100.00;63232.03;5101596;28;20233;-71
2024/01/19 10:50:13;;;;;;;2.22;2.08;;;;;;;12.24;100.00;63260.03;5102827;28;20223;-71
2024/01/19 10:52:41;;;;;;;3.97;1.50;;;;;;;12.53;100.00;63287.56;5093248;28;20246;-72
2024/01/19 10:55:08;;;;;;;3.75;1.42;;;;;;;12.85;94.07;63323.31;5100738;28;20239;-73
2024/01/19 10:57:35;;;;;;;2.97;1.58;;;;;;;13.07;94.63;63346.13;5103253;28;20215;-70
2024/01/19 11:00:22;;;;;;;4.43;1.50;;;;;;;13.22;86.54;63361.69;5102830;28;20258;-71
2024/01/19 11:02:49;;;;;;;3.03;1.20;;;;;;;13.45;86.00;63380.44;5090695;28;20196;-70
2024/01/19 11:05:18;;;;;;;4.60;1.90;;;;;;;13.52;86.26;63392.31;5104100;28;20251;-71
2024/01/19 11:07:44;;;;;;;4.70;2.60;;;;;;;13.60;88.27;63403.69;5086116;28;20197;-71
2024/01/19 11:10:12;;;;;;;6.60;4.15;;;;;;;13.71;96.17;63406.91;5100822;28;20235;-71
2024/01/19 11:12:40;;;;;;;12.50;4.95;;;;;;;13.69;100.00;63410.47;5100449;28;20229;-72
2024/01/19 11:15:09;;;;;;;9.02;4.65;;;;;;;13.78;100.00;63417.25;5101795;28;20239;-72
2024/01/19 11:17:37;;;;;;;9.40;4.63;;;;;;;13.96;100.00;63437.47;5097046;28;20203;-71
2024/01/19 11:20:05;;;;;;;8.40;4.88;;;;;;;14.08;100.00;63447.34;5104051;28;20223;-73
2024/01/19 11:22:32;;;;;;;5.75;4.35;;;;;;;14.20;97.17;63460.34;5104023;28;20343;-72
2024/01/19 11:25:02;;;;;;;12.68;5.55;;;;;;;14.29;97.62;63471.75;5104071;28;20294;-72
2024/01/19 11:27:30;;;;;;;4.82;4.43;;;;;;;14.57;100.00;63501.31;5097208;28;20196;-71
2024/01/19 11:30:02;;;;;;;4.40;3.15;;;;;;;14.55;91.69;63491.56;5096874;28;20219;-72